createdAt,value
2018-12-17T00:01:41.795Z,154.18
2018-12-17T00:06:44.832Z,128.93
2018-12-17T00:11:47.359Z,149.40
2018-12-17T00:16:49.853Z,154.72
2018-12-17T00:21:52.240Z,150.95
2018-12-17T00:26:54.722Z,157.35
2018-12-17T00:31:57.143Z,156.55
2018-12-17T00:36:59.820Z,164.50
2018-12-17T00:42:02.640Z,158.45
2018-12-17T00:47:05.069Z,160.10
2018-12-17T00:52:07.481Z,150.68
2018-12-17T00:57:09.990Z,156.32
2018-12-17T01:02:12.383Z,141.47
2018-12-17T01:07:14.780Z,130.83
2018-12-17T01:12:17.339Z,134.78
2018-12-17T01:17:19.978Z,114.37
2018-12-17T01:22:22.467Z,151.63
2018-12-17T01:27:24.949Z,138.52
2018-12-17T01:32:27.426Z,159.90
2018-12-17T01:37:29.836Z,155.87
2018-12-17T01:42:32.486Z,128.90
2018-12-17T01:47:34.972Z,146.72
2018-12-17T01:52:37.374Z,127.32
2018-12-17T01:57:39.902Z,126.00
2018-12-17T02:02:42.360Z,129.00
2018-12-17T02:07:44.814Z,153.75
2018-12-17T02:12:47.326Z,117.53
2018-12-17T02:17:49.756Z,121.30
2018-12-17T02:22:52.167Z,130.05
2018-12-17T02:27:54.574Z,119.62
2018-12-17T02:32:57.071Z,121.57
2018-12-17T02:37:59.439Z,110.95
2018-12-17T02:43:01.967Z,134.47
2018-12-17T02:48:04.374Z,119.77
2018-12-17T02:53:06.816Z,124.07
2018-12-17T02:58:09.233Z,131.52
2018-12-17T03:03:11.721Z,138.55
2018-12-17T03:08:14.146Z,153.05
2018-12-17T03:13:16.576Z,127.20
2018-12-17T03:18:18.963Z,147.15
2018-12-17T03:23:21.394Z,157.85
2018-12-17T03:28:23.787Z,172.43
2018-12-17T03:33:26.158Z,133.37
2018-12-17T03:38:28.691Z,144.87
2018-12-17T03:43:31.094Z,147.95
2018-12-17T03:48:33.603Z,150.55
2018-12-17T03:53:36.006Z,151.42
2018-12-17T03:58:38.333Z,147.60
2018-12-17T04:03:41.926Z,162.43
2018-12-17T04:08:44.414Z,145.12
2018-12-17T04:13:52.203Z,152.47
2018-12-17T04:18:54.722Z,120.55
2018-12-17T04:23:57.414Z,143.07
2018-12-17T04:29:06.632Z,116.08
2018-12-17T04:34:04.413Z,132.78
2018-12-17T04:39:07.037Z,128.35
2018-12-17T04:44:09.932Z,114.45
2018-12-17T04:49:12.293Z,127.62
2018-12-17T04:54:14.715Z,129.42
2018-12-17T04:59:17.110Z,106.43
2018-12-17T05:04:19.773Z,94.03
2018-12-17T05:09:22.190Z,107.80
2018-12-17T05:14:24.574Z,105.05
2018-12-17T05:19:26.988Z,121.02
2018-12-17T05:24:29.416Z,89.72
2018-12-17T05:29:31.694Z,85.85
2018-12-17T05:34:34.129Z,96.30
2018-12-17T05:39:36.614Z,104.32
2018-12-17T05:44:39.103Z,98.58
2018-12-17T05:49:41.466Z,121.00
2018-12-17T05:54:43.851Z,110.52
2018-12-17T05:59:46.223Z,117.15
2018-12-17T06:04:48.576Z,112.68
2018-12-17T06:09:51.494Z,148.38
2018-12-17T06:14:53.843Z,146.68
2018-12-17T06:19:56.579Z,169.37
2018-12-17T06:24:59.206Z,166.70
2018-12-17T06:30:01.544Z,157.78
2018-12-17T06:35:04.532Z,160.22
2018-12-17T06:40:10.336Z,197.98
2018-12-17T06:45:11.626Z,188.85
2018-12-17T06:50:14.087Z,212.85
2018-12-17T06:55:17.210Z,215.25
2018-12-17T07:00:19.918Z,189.40
2018-12-17T07:05:22.310Z,208.60
2018-12-17T07:10:24.922Z,199.80
2018-12-17T07:15:27.348Z,215.10
2018-12-17T07:20:29.761Z,199.90
2018-12-17T07:25:32.226Z,211.80
2018-12-17T07:30:34.563Z,195.45
2018-12-17T07:35:36.956Z,268.95
2018-12-17T07:40:39.240Z,241.68
2018-12-17T07:45:42.469Z,251.98
2018-12-17T07:50:44.747Z,262.82
2018-12-17T07:55:47.793Z,248.72
2018-12-17T08:00:50.128Z,249.67
2018-12-17T08:05:52.462Z,257.92
2018-12-17T08:10:56.160Z,262.60
2018-12-17T08:15:58.421Z,253.05
2018-12-17T08:21:00.762Z,265.23
2018-12-17T08:26:03.352Z,278.75
2018-12-17T08:31:05.878Z,247.55
2018-12-17T08:36:08.951Z,282.23
2018-12-17T08:41:11.303Z,263.75
2018-12-17T08:46:13.609Z,246.13
2018-12-17T08:51:15.997Z,247.45
2018-12-17T08:56:18.338Z,240.05
2018-12-17T09:01:20.817Z,245.97
2018-12-17T09:06:23.530Z,232.60
2018-12-17T09:11:26.155Z,185.60
2018-12-17T09:16:28.474Z,177.22
2018-12-17T09:21:30.821Z,197.37
2018-12-17T09:26:33.200Z,174.00
2018-12-17T09:31:35.595Z,179.12
2018-12-17T09:36:38.167Z,178.12
2018-12-17T09:41:40.754Z,135.72
2018-12-17T09:46:43.579Z,151.63
2018-12-17T09:51:46.101Z,155.52
2018-12-17T09:56:48.535Z,131.52
2018-12-17T10:01:50.948Z,115.77
2018-12-17T10:06:53.217Z,133.40
2018-12-17T10:11:55.763Z,133.82
2018-12-17T10:16:58.175Z,126.22
2018-12-17T10:22:00.752Z,125.33
2018-12-17T10:27:03.239Z,109.10
2018-12-17T10:32:05.689Z,99.22
2018-12-17T10:37:08.422Z,100.25
2018-12-17T10:42:10.864Z,88.85
2018-12-17T10:47:13.448Z,83.25
2018-12-17T10:52:15.968Z,85.07
2018-12-17T10:57:18.342Z,84.17
2018-12-17T11:02:24.063Z,72.03
2018-12-17T11:07:26.434Z,71.37
2018-12-17T11:12:28.790Z,80.05
2018-12-17T11:17:31.383Z,75.95
2018-12-17T11:22:35.127Z,62.90
2018-12-17T11:27:37.500Z,70.52
2018-12-17T11:32:43.345Z,73.72
2018-12-17T11:37:45.713Z,70.92
2018-12-17T11:42:48.053Z,71.67
2018-12-17T11:47:50.440Z,67.45
2018-12-17T11:52:53.349Z,58.90
2018-12-17T11:58:08.383Z,56.50
2018-12-17T12:03:10.902Z,55.92
2018-12-17T12:08:13.190Z,47.95
2018-12-17T12:13:15.578Z,45.92
2018-12-17T12:18:18.193Z,50.17
2018-12-17T12:23:20.557Z,43.87
2018-12-17T12:28:22.936Z,45.50
2018-12-17T12:33:25.365Z,45.00
2018-12-17T12:38:27.826Z,55.10
2018-12-17T12:43:30.254Z,53.25
2018-12-17T12:48:32.597Z,59.98
2018-12-17T12:53:35.190Z,53.65
2018-12-17T12:58:38.442Z,56.63
2018-12-17T13:03:41.825Z,55.50
2018-12-17T13:08:44.355Z,51.75
2018-12-17T13:13:46.999Z,61.45
2018-12-17T13:18:49.442Z,61.42
2018-12-17T13:23:51.897Z,52.10
2018-12-17T13:28:54.238Z,69.27
2018-12-17T13:33:56.589Z,65.15
2018-12-17T13:38:59.261Z,64.47
2018-12-17T13:44:02.394Z,65.22
2018-12-17T13:49:05.400Z,63.38
2018-12-17T13:54:07.853Z,71.15
2018-12-17T13:59:10.132Z,66.10
2018-12-17T14:04:12.571Z,60.28
2018-12-17T14:09:16.417Z,72.08
2018-12-17T14:14:18.740Z,69.95
2018-12-17T14:19:26.063Z,73.75
2018-12-17T14:24:29.414Z,63.90
2018-12-17T14:29:31.791Z,71.50
2018-12-17T14:34:34.149Z,68.05
2018-12-17T14:39:36.544Z,76.42
2018-12-17T14:44:39.021Z,68.47
2018-12-17T14:49:41.479Z,70.08
2018-12-17T14:54:44.404Z,67.42
2018-12-17T14:59:47.027Z,71.07
2018-12-17T15:04:49.460Z,62.23
2018-12-17T15:09:51.839Z,75.95
2018-12-17T15:14:54.878Z,70.57
2018-12-17T15:19:57.650Z,66.53
2018-12-17T15:24:59.988Z,59.48
2018-12-17T15:30:02.603Z,69.82
2018-12-17T15:35:05.515Z,54.00
2018-12-17T15:40:08.150Z,92.03
2018-12-17T15:45:10.641Z,59.40
2018-12-17T15:50:12.994Z,64.65
2018-12-17T15:55:15.364Z,60.60
2018-12-17T16:00:18.786Z,56.33
2018-12-17T16:05:21.337Z,59.63
2018-12-17T16:10:23.853Z,60.85
2018-12-17T16:15:26.242Z,61.10
2018-12-17T16:20:28.704Z,59.45
2018-12-17T16:25:32.096Z,58.10
2018-12-17T16:30:34.514Z,56.88
2018-12-17T16:35:37.997Z,60.25
2018-12-17T16:40:40.806Z,59.45
2018-12-17T16:45:43.623Z,60.03
2018-12-17T16:50:45.972Z,53.65
2018-12-17T16:55:48.372Z,53.13
2018-12-17T17:00:50.667Z,55.48
2018-12-17T17:05:53.054Z,54.48
2018-12-17T17:10:55.469Z,57.38
2018-12-17T17:15:58.224Z,51.77
2018-12-17T17:21:00.817Z,58.25
2018-12-17T17:26:03.963Z,64.85
2018-12-17T17:31:06.645Z,62.55
2018-12-17T17:36:09.123Z,63.25
2018-12-17T17:41:11.585Z,71.47
2018-12-17T17:46:14.206Z,78.15
2018-12-17T17:51:16.647Z,71.90
2018-12-17T17:56:19.041Z,67.32
2018-12-17T18:01:21.515Z,73.07
2018-12-17T18:06:24.043Z,73.62
2018-12-17T18:11:26.489Z,66.05
2018-12-17T18:16:28.971Z,73.52
2018-12-17T18:21:31.682Z,70.00
2018-12-17T18:26:34.203Z,72.53
2018-12-17T18:31:37.110Z,75.20
2018-12-17T18:36:39.691Z,65.00
2018-12-17T18:41:42.241Z,76.92
2018-12-17T18:46:44.661Z,67.37
2018-12-17T18:51:47.059Z,62.23
2018-12-17T18:56:49.788Z,64.22
2018-12-17T19:01:52.238Z,67.40
2018-12-17T19:06:54.762Z,61.60
2018-12-17T19:11:57.417Z,66.15
2018-12-17T19:16:59.762Z,74.58
2018-12-17T19:22:02.377Z,63.65
2018-12-17T19:27:04.831Z,57.90
2018-12-17T19:32:07.322Z,54.77
2018-12-17T19:37:09.964Z,50.55
2018-12-17T19:42:13.326Z,55.40
2018-12-17T19:47:15.855Z,45.75
2018-12-17T19:52:18.480Z,54.88
2018-12-17T19:57:21.111Z,54.63
2018-12-17T20:02:24.495Z,50.90
2018-12-17T20:07:29.061Z,49.27
2018-12-17T20:12:31.663Z,48.70
2018-12-17T20:17:34.097Z,44.33
2018-12-17T20:22:36.505Z,45.00
2018-12-17T20:27:39.139Z,53.13
2018-12-17T20:32:41.721Z,44.70
2018-12-17T20:37:44.167Z,44.13
2018-12-17T20:42:46.676Z,52.43
2018-12-17T20:47:49.114Z,45.60
2018-12-17T20:52:51.502Z,43.20
2018-12-17T20:57:53.925Z,45.23
2018-12-17T21:03:00.198Z,40.12
2018-12-17T21:08:01.431Z,40.55
2018-12-17T21:13:03.882Z,47.43
2018-12-17T21:18:06.367Z,42.00
2018-12-17T21:23:09.555Z,45.28
2018-12-17T21:28:12.081Z,49.27
2018-12-17T21:33:14.585Z,48.98
2018-12-17T21:38:17.038Z,47.20
2018-12-17T21:43:19.658Z,48.55
2018-12-17T21:48:22.622Z,49.15
2018-12-17T21:53:25.013Z,43.30
2018-12-17T21:58:28.387Z,49.33
2018-12-17T22:03:30.996Z,54.27
2018-12-17T22:08:33.470Z,48.50
2018-12-17T22:13:36.027Z,48.48
2018-12-17T22:18:38.519Z,46.83
2018-12-17T22:23:40.866Z,42.35
2018-12-17T22:28:43.357Z,48.70
2018-12-17T22:33:45.874Z,58.00
2018-12-17T22:38:48.325Z,56.70
2018-12-17T22:43:50.698Z,49.10
2018-12-17T22:48:53.134Z,56.95
2018-12-17T22:53:55.522Z,53.55
2018-12-17T22:58:58.001Z,48.28
2018-12-17T23:04:00.401Z,46.28
2018-12-17T23:09:04.960Z,43.70
2018-12-17T23:14:18.639Z,48.42
2018-12-17T23:19:19.983Z,53.50
2018-12-17T23:24:22.513Z,49.45
2018-12-17T23:29:25.042Z,46.42
2018-12-17T23:34:27.777Z,52.53
2018-12-17T23:39:30.227Z,45.15
2018-12-17T23:44:36.209Z,49.60
2018-12-17T23:49:38.699Z,49.27
2018-12-17T23:54:41.663Z,51.25
2018-12-17T23:59:44.248Z,48.65
